Time;durP1;ratioP1;P1;durP2;ratioP2;P2;SDS_P1;SDS_P2;PMS_P1;PMS_P2;Temp;Humidity;BMP_temperature;BMP_pressure;BME280_temperature;BME280_humidity;BME280_pressure;Samples;Min_cycle;Max_cycle;Signal;HPM_P1;HPM_P2
2022/07/30 00:01:51;;;;;;;5.00;4.57;;;21.70;59.20;;;;;;4994635;28;20455;-68
2022/07/30 00:04:19;;;;;;;6.27;5.67;;;21.70;59.40;;;;;;4994653;28;20455;-68
2022/07/30 00:06:45;;;;;;;5.70;5.27;;;21.70;59.50;;;;;;4994637;28;20443;-68
2022/07/30 00:09:12;;;;;;;8.20;5.27;;;21.60;59.60;;;;;;4994510;28;20464;-68
2022/07/30 00:11:39;;;;;;;6.37;4.87;;;21.60;59.70;;;;;;4994318;28;20468;-68
2022/07/30 00:14:06;;;;;;;6.70;5.20;;;21.60;59.90;;;;;;4994543;28;20443;-68
2022/07/30 00:16:34;;;;;;;8.20;6.10;;;21.50;59.90;;;;;;4994634;28;20456;-67
2022/07/30 00:19:01;;;;;;;5.90;5.50;;;21.50;60.10;;;;;;4994279;28;20468;-67
2022/07/30 00:21:28;;;;;;;6.83;6.13;;;21.50;60.50;;;;;;4994210;28;20475;-67
2022/07/30 00:23:55;;;;;;;5.70;5.20;;;21.40;60.60;;;;;;4994407;28;20455;-67
2022/07/30 00:26:22;;;;;;;6.43;5.07;;;21.30;60.90;;;;;;4994387;28;20456;-67
2022/07/30 00:28:49;;;;;;;6.60;5.37;;;21.20;60.80;;;;;;4994311;28;22232;-67
2022/07/30 00:31:15;;;;;;;6.10;5.60;;;21.10;61.00;;;;;;4994351;28;20523;-67
2022/07/30 00:33:44;;;;;;;5.93;5.37;;;20.90;61.20;;;;;;4994389;28;20449;-67
2022/07/30 00:36:10;;;;;;;5.27;4.80;;;20.80;61.80;;;;;;4994264;28;20456;-67
2022/07/30 00:38:37;;;;;;;5.50;5.00;;;20.70;62.50;;;;;;4994255;28;20452;-67
2022/07/30 00:41:04;;;;;;;5.00;4.60;;;20.60;62.70;;;;;;4993909;28;20857;-67
2022/07/30 00:43:31;;;;;;;5.87;5.13;;;20.60;63.10;;;;;;4994304;28;20451;-67
2022/07/30 00:45:57;;;;;;;5.87;5.37;;;20.60;63.50;;;;;;4993552;28;20464;-67
2022/07/30 00:48:24;;;;;;;6.30;5.10;;;20.60;64.00;;;;;;4994056;28;20453;-67
2022/07/30 00:50:52;;;;;;;7.13;6.07;;;20.60;64.30;;;;;;4994089;28;20468;-67
2022/07/30 00:53:19;;;;;;;7.27;6.40;;;20.60;64.80;;;;;;4994102;28;20444;-67
2022/07/30 00:55:46;;;;;;;7.00;6.40;;;20.60;65.20;;;;;;4994082;28;20448;-67
2022/07/30 00:58:12;;;;;;;8.80;6.43;;;20.50;65.80;;;;;;4993713;28;20482;-67
2022/07/30 01:00:39;;;;;;;8.33;7.50;;;20.50;66.40;;;;;;4993885;28;20484;-67
2022/07/30 01:03:06;;;;;;;7.27;6.67;;;20.40;66.60;;;;;;4993618;28;20972;-67
2022/07/30 01:05:33;;;;;;;8.83;7.60;;;20.30;66.90;;;;;;4993964;28;20444;-67
2022/07/30 01:08:02;;;;;;;8.60;7.83;;;20.30;67.10;;;;;;4993983;28;20458;-67
2022/07/30 01:10:28;;;;;;;8.33;7.47;;;20.20;67.40;;;;;;4993941;28;20456;-67
2022/07/30 01:12:57;;;;;;;7.83;6.83;;;20.10;67.90;;;;;;4993595;28;20467;-67
2022/07/30 01:15:26;;;;;;;7.40;6.80;;;20.00;68.20;;;;;;4994006;28;20464;-67
2022/07/30 01:17:56;;;;;;;9.80;6.77;;;20.00;68.80;;;;;;4993592;28;20813;-67
2022/07/30 01:20:25;;;;;;;7.07;6.33;;;20.00;69.40;;;;;;4993688;28;20492;-67
2022/07/30 01:23:01;;;;;;;7.80;7.10;;;20.00;69.70;;;;;;4993850;28;20447;-67
2022/07/30 01:25:44;;;;;;;8.07;7.20;;;19.90;69.50;;;;;;4993891;28;20440;-67
2022/07/30 01:28:15;;;;;;;9.03;6.93;;;19.90;69.50;;;;;;4993743;28;20483;-67
2022/07/30 01:30:45;;;;;;;8.43;6.60;;;19.90;69.70;;;;;;4993710;28;20845;-67
2022/07/30 01:33:14;;;;;;;10.80;6.47;;;19.90;69.90;;;;;;4993913;28;20539;-67
2022/07/30 01:35:44;;;;;;;8.10;7.30;;;19.90;70.10;;;;;;4993973;28;20448;-67
2022/07/30 01:38:15;;;;;;;10.07;7.37;;;19.80;70.10;;;;;;4993363;28;20938;-67
2022/07/30 01:40:44;;;;;;;8.37;7.57;;;19.70;70.50;;;;;;4993292;28;20989;-67
2022/07/30 01:43:13;;;;;;;7.90;6.73;;;19.70;70.80;;;;;;4993667;28;20448;-67
2022/07/30 01:45:41;;;;;;;8.17;7.43;;;19.70;70.70;;;;;;4993970;28;20464;-67
2022/07/30 01:48:11;;;;;;;8.00;6.70;;;19.70;70.90;;;;;;4994016;28;20452;-67
2022/07/30 01:50:42;;;;;;;7.70;5.80;;;19.80;71.00;;;;;;4993671;28;20463;-67
2022/07/30 01:53:10;;;;;;;8.27;7.27;;;19.70;71.00;;;;;;4994261;28;20429;-67
2022/07/30 01:55:42;;;;;;;7.50;6.80;;;19.80;71.00;;;;;;4994052;28;20957;-67
2022/07/30 01:58:12;;;;;;;7.90;7.17;;;19.80;70.90;;;;;;4995853;28;20508;-67
2022/07/30 02:00:42;;;;;;;9.67;6.87;;;19.80;71.00;;;;;;4996926;28;20468;-67
2022/07/30 02:03:10;;;;;;;8.20;7.40;;;19.80;71.90;;;;;;4997153;28;20456;-67
2022/07/30 02:05:38;;;;;;;7.97;7.07;;;19.80;71.60;;;;;;4996851;28;20456;-67
2022/07/30 02:08:12;;;;;;;9.73;7.00;;;19.70;71.70;;;;;;4996835;28;20448;-67
2022/07/30 02:10:44;;;;;;;8.83;7.37;;;19.70;72.10;;;;;;4996709;28;20505;-67
2022/07/30 02:13:14;;;;;;;8.83;7.40;;;19.70;72.40;;;;;;4996392;28;20958;-67
2022/07/30 02:15:45;;;;;;;8.63;6.30;;;19.70;72.30;;;;;;4996815;28;20425;-67
2022/07/30 02:18:18;;;;;;;10.70;6.60;;;19.70;72.50;;;;;;4996389;28;20781;-67
2022/07/30 02:20:53;;;;;;;7.63;6.93;;;19.70;72.70;;;;;;4996649;28;20476;-67
2022/07/30 02:23:23;;;;;;;9.10;7.50;;;19.80;72.70;;;;;;4996615;28;20494;-67
2022/07/30 02:25:51;;;;;;;7.60;6.80;;;19.70;72.30;;;;;;4996472;28;20452;-67
2022/07/30 02:28:22;;;;;;;8.50;7.27;;;19.70;72.50;;;;;;4996367;28;20478;-67
2022/07/30 02:30:53;;;;;;;8.20;7.40;;;19.60;72.80;;;;;;4996280;28;20496;-67
2022/07/30 02:33:23;;;;;;;9.77;8.33;;;19.60;73.10;;;;;;4996482;28;20830;-67
2022/07/30 02:35:51;;;;;;;10.80;7.50;;;19.50;73.40;;;;;;4996346;28;20448;-67
2022/07/30 02:38:20;;;;;;;8.80;7.93;;;19.40;73.70;;;;;;4996280;28;20452;-67
2022/07/30 02:40:49;;;;;;;11.23;8.23;;;19.30;74.20;;;;;;4996093;28;20467;-67
2022/07/30 02:43:19;;;;;;;8.07;7.23;;;19.30;74.80;;;;;;4996208;28;20807;-67
2022/07/30 02:45:48;;;;;;;7.90;7.13;;;19.30;75.00;;;;;;4996152;28;20452;-67
2022/07/30 02:48:22;;;;;;;8.20;7.43;;;19.20;75.00;;;;;;4996121;28;20488;-67
2022/07/30 02:50:50;;;;;;;9.10;8.13;;;19.20;75.10;;;;;;4995905;28;20567;-67
2022/07/30 02:53:19;;;;;;;9.70;7.40;;;19.20;75.10;;;;;;4995953;28;20451;-67
2022/07/30 02:55:48;;;;;;;8.23;6.73;;;19.30;75.20;;;;;;4995971;28;20448;-67
2022/07/30 02:58:19;;;;;;;10.93;7.33;;;19.30;75.00;;;;;;4995597;28;20507;-67
2022/07/30 03:00:49;;;;;;;8.77;8.07;;;19.40;74.70;;;;;;4995738;28;20472;-67
2022/07/30 03:03:17;;;;;;;8.73;7.73;;;19.40;74.50;;;;;;4995798;28;20439;-67
2022/07/30 03:05:44;;;;;;;7.50;6.80;;;19.30;74.50;;;;;;4995768;28;20452;-67
2022/07/30 03:08:12;;;;;;;9.07;8.27;;;19.30;74.60;;;;;;4995730;28;20483;-67
2022/07/30 03:10:43;;;;;;;8.87;7.60;;;19.20;74.90;;;;;;4994407;28;21023;-67
2022/07/30 03:13:11;;;;;;;9.97;9.10;;;19.20;75.20;;;;;;4995337;28;20472;-67
2022/07/30 03:15:42;;;;;;;10.60;9.00;;;19.10;75.30;;;;;;4995294;28;20968;-67
2022/07/30 03:18:13;;;;;;;12.07;9.07;;;19.10;76.30;;;;;;4995254;28;20926;-67
2022/07/30 03:20:44;;;;;;;9.27;8.43;;;19.10;76.40;;;;;;4995178;28;20476;-67
2022/07/30 03:23:12;;;;;;;10.93;8.63;;;19.00;76.30;;;;;;4995409;28;20448;-67
2022/07/30 03:25:40;;;;;;;10.60;9.50;;;19.00;76.60;;;;;;4995095;28;20938;-67
2022/07/30 03:28:08;;;;;;;11.00;10.00;;;19.00;77.10;;;;;;4994981;28;20459;-67
2022/07/30 03:30:35;;;;;;;11.17;9.90;;;18.90;78.30;;;;;;4994854;28;20480;-67
2022/07/30 03:33:02;;;;;;;11.77;10.47;;;18.90;77.90;;;;;;4995138;28;20463;-67
2022/07/30 03:35:31;;;;;;;11.43;10.33;;;18.90;78.20;;;;;;4995172;28;20452;-67
2022/07/30 03:37:59;;;;;;;10.40;9.40;;;18.90;78.60;;;;;;4995259;28;20454;-67
2022/07/30 03:40:27;;;;;;;10.47;9.20;;;18.80;78.70;;;;;;4994983;28;20468;-67
2022/07/30 03:42:54;;;;;;;11.33;9.43;;;18.80;79.10;;;;;;4994786;28;20467;-67
2022/07/30 03:45:21;;;;;;;10.80;9.80;;;18.80;79.30;;;;;;4994978;28;20455;-67
2022/07/30 03:47:49;;;;;;;12.10;10.30;;;18.80;79.50;;;;;;4994990;28;20491;-67
2022/07/30 03:50:16;;;;;;;13.43;10.60;;;18.80;79.80;;;;;;4994826;28;20484;-67
2022/07/30 03:52:44;;;;;;;12.10;10.00;;;18.80;79.80;;;;;;4994910;28;20444;-67
2022/07/30 03:55:12;;;;;;;10.20;9.20;;;18.80;80.20;;;;;;4994966;28;20574;-67
2022/07/30 03:57:39;;;;;;;10.90;9.97;;;18.70;79.90;;;;;;4994515;28;20814;-67
2022/07/30 04:00:07;;;;;;;12.40;10.13;;;18.70;80.10;;;;;;4994735;28;20475;-67
2022/07/30 04:02:41;;;;;;;10.70;9.63;;;18.70;80.50;;;;;;4994715;28;20462;-67
2022/07/30 04:05:08;;;;;;;12.30;9.20;;;18.60;80.90;;;;;;4994900;28;20440;-67
2022/07/30 04:07:35;;;;;;;11.67;10.47;;;18.60;81.40;;;;;;4994622;28;20455;-67
2022/07/30 04:10:04;;;;;;;14.90;10.10;;;18.60;81.50;;;;;;4994495;28;20901;-67
2022/07/30 04:12:30;;;;;;;12.30;9.60;;;18.50;81.60;;;;;;4994261;28;20474;-67
2022/07/30 04:14:58;;;;;;;11.93;10.57;;;18.50;81.90;;;;;;4994653;28;20448;-67
2022/07/30 04:17:28;;;;;;;11.93;10.70;;;18.60;82.30;;;;;;4994596;28;20556;-67
2022/07/30 04:20:01;;;;;;;16.37;10.90;;;18.50;82.40;;;;;;4994540;28;20473;-67
2022/07/30 04:22:32;;;;;;;13.57;10.60;;;18.50;82.70;;;;;;4994625;28;20436;-67
2022/07/30 04:24:59;;;;;;;11.87;9.90;;;18.50;83.00;;;;;;4994782;28;20435;-67
2022/07/30 04:27:29;;;;;;;11.33;10.23;;;18.50;83.60;;;;;;4995113;28;20448;-67
2022/07/30 04:29:56;;;;;;;13.70;10.90;;;18.50;84.10;;;;;;4995397;28;20483;-67
2022/07/30 04:32:23;;;;;;;13.63;10.13;;;18.40;84.90;;;;;;4995175;28;20510;-67
2022/07/30 04:34:52;;;;;;;13.03;11.73;;;18.40;86.70;;;;;;4994287;28;20467;-67
2022/07/30 04:37:21;;;;;;;17.67;13.00;;;18.30;87.50;;;;;;4994242;28;20450;-67
2022/07/30 04:39:50;;;;;;;16.50;12.67;;;18.30;89.50;;;;;;4994156;28;20475;-67
2022/07/30 04:42:17;;;;;;;17.13;12.53;;;18.30;90.20;;;;;;4993917;28;20938;-67
2022/07/30 04:44:45;;;;;;;24.20;16.27;;;18.30;90.90;;;;;;4994179;28;20448;-67
2022/07/30 04:47:12;;;;;;;20.60;15.03;;;18.30;91.30;;;;;;4994107;28;20455;-67
2022/07/30 04:49:40;;;;;;;24.00;17.00;;;18.20;91.80;;;;;;4994103;28;20476;-67
2022/07/30 04:52:08;;;;;;;22.63;16.33;;;18.30;92.20;;;;;;4993718;28;20472;-67
2022/07/30 04:54:38;;;;;;;20.00;16.90;;;18.30;92.50;;;;;;4994081;28;20452;-67
2022/07/30 04:57:06;;;;;;;23.57;17.10;;;18.30;92.80;;;;;;4994031;28;20437;-67
2022/07/30 04:59:35;;;;;;;24.17;16.57;;;18.30;93.20;;;;;;4993559;28;20845;-67
2022/07/30 05:02:06;;;;;;;28.90;19.73;;;18.40;93.50;;;;;;4993604;28;20452;-67
2022/07/30 05:04:33;;;;;;;23.57;17.17;;;18.40;93.70;;;;;;4995080;28;20824;-67
2022/07/30 05:07:02;;;;;;;27.23;17.70;;;18.40;93.80;;;;;;4993959;28;20456;-67
2022/07/30 05:09:29;;;;;;;30.23;18.70;;;18.40;94.00;;;;;;4993876;28;20479;-67
2022/07/30 05:11:58;;;;;;;24.00;18.30;;;18.40;94.30;;;;;;4993620;28;20495;-67
2022/07/30 05:14:26;;;;;;;25.07;18.60;;;18.50;94.40;;;;;;4993650;28;20456;-67
2022/07/30 05:16:53;;;;;;;26.97;17.73;;;18.50;94.40;;;;;;4993907;28;20455;-67
2022/07/30 05:19:22;;;;;;;27.37;19.10;;;18.50;94.60;;;;;;4993465;28;20981;-67
2022/07/30 05:21:49;;;;;;;23.50;18.40;;;18.60;94.60;;;;;;4993768;28;20452;-67
2022/07/30 05:24:16;;;;;;;26.50;19.50;;;18.70;94.50;;;;;;4993802;28;20452;-67
2022/07/30 05:26:43;;;;;;;25.00;18.33;;;18.60;94.70;;;;;;4993783;28;20444;-67
2022/07/30 05:29:10;;;;;;;24.00;19.77;;;18.60;94.70;;;;;;4993474;28;21012;-67
2022/07/30 05:31:37;;;;;;;27.63;20.30;;;18.70;95.00;;;;;;4993603;28;20491;-68
2022/07/30 05:34:04;;;;;;;26.90;19.20;;;18.70;95.20;;;;;;4996525;28;20451;-67
2022/07/30 05:36:32;;;;;;;27.53;19.90;;;18.70;95.10;;;;;;4997455;28;20444;-67
2022/07/30 05:38:59;;;;;;;27.67;20.23;;;18.70;95.00;;;;;;4997341;28;20499;-67
2022/07/30 05:41:27;;;;;;;26.17;20.47;;;18.70;95.20;;;;;;4997355;28;20452;-67
2022/07/30 05:43:54;;;;;;;28.73;19.53;;;18.70;95.40;;;;;;4997277;28;20506;-67
2022/07/30 05:46:21;;;;;;;26.00;18.70;;;18.70;95.20;;;;;;4997243;28;20456;-67
2022/07/30 05:48:47;;;;;;;28.07;19.30;;;18.80;95.30;;;;;;4997188;28;20455;-67
2022/07/30 05:51:14;;;;;;;26.37;18.07;;;18.70;95.50;;;;;;4997184;28;20480;-67
2022/07/30 05:53:42;;;;;;;25.00;17.87;;;18.70;95.70;;;;;;4997256;28;20448;-67
2022/07/30 05:56:09;;;;;;;22.53;19.50;;;18.80;95.60;;;;;;4996962;28;20432;-67
2022/07/30 05:58:36;;;;;;;25.30;18.73;;;18.80;95.70;;;;;;4997033;28;20447;-67
2022/07/30 06:01:03;;;;;;;23.63;17.43;;;18.90;95.80;;;;;;4996806;28;20440;-67
2022/07/30 06:03:29;;;;;;;27.07;17.80;;;18.90;95.70;;;;;;4996902;28;20448;-67
2022/07/30 06:05:56;;;;;;;23.10;17.50;;;19.00;95.80;;;;;;4996609;28;20448;-67
2022/07/30 06:08:23;;;;;;;22.93;17.67;;;19.00;95.50;;;;;;4996859;28;20459;-67
2022/07/30 06:10:51;;;;;;;20.47;17.53;;;19.10;95.60;;;;;;4996659;28;20488;-67
2022/07/30 06:13:18;;;;;;;23.97;17.77;;;19.10;95.40;;;;;;4996469;28;20456;-67
2022/07/30 06:15:45;;;;;;;24.40;17.30;;;19.10;95.30;;;;;;4996747;28;20458;-68
2022/07/30 06:18:11;;;;;;;23.03;17.60;;;19.20;95.30;;;;;;4996735;28;20436;-68
2022/07/30 06:20:38;;;;;;;18.50;16.60;;;19.20;94.90;;;;;;4996349;28;21000;-68
2022/07/30 06:23:05;;;;;;;18.27;15.97;;;19.20;94.90;;;;;;4996708;28;20804;-68
2022/07/30 06:25:32;;;;;;;18.50;15.73;;;19.20;94.80;;;;;;4996601;28;20444;-68
2022/07/30 06:28:00;;;;;;;19.43;16.00;;;19.30;94.40;;;;;;4996644;28;20456;-68
2022/07/30 06:30:28;;;;;;;21.00;15.20;;;19.30;94.60;;;;;;4996431;28;20562;-68
2022/07/30 06:32:55;;;;;;;16.87;15.07;;;19.40;94.10;;;;;;4996050;28;21008;-68
2022/07/30 06:35:22;;;;;;;18.20;14.67;;;19.40;94.10;;;;;;4996451;28;20538;-68
2022/07/30 06:37:49;;;;;;;20.23;16.30;;;19.50;94.40;;;;;;4996037;28;20454;-68
2022/07/30 06:40:15;;;;;;;18.60;16.37;;;19.60;93.90;;;;;;4996237;28;20468;-68
2022/07/30 06:42:42;;;;;;;18.43;13.17;;;19.70;93.80;;;;;;4996223;28;20456;-68
2022/07/30 06:45:11;;;;;;;18.70;13.90;;;19.80;93.40;;;;;;4994984;28;20444;-68
2022/07/30 06:47:38;;;;;;;20.77;14.60;;;19.90;92.90;;;;;;4995857;28;20448;-68
2022/07/30 06:50:05;;;;;;;19.73;14.10;;;20.00;92.60;;;;;;4995974;28;20483;-68
2022/07/30 06:52:32;;;;;;;21.87;14.50;;;20.00;92.30;;;;;;4995988;28;20484;-68
2022/07/30 06:54:59;;;;;;;17.23;14.30;;;20.00;91.40;;;;;;4996130;28;20487;-68
2022/07/30 06:57:26;;;;;;;21.17;15.67;;;20.00;91.80;;;;;;4996057;28;20449;-68
2022/07/30 06:59:53;;;;;;;22.70;14.80;;;20.10;91.80;;;;;;4995853;28;20486;-68
2022/07/30 07:02:21;;;;;;;18.17;14.10;;;20.20;91.60;;;;;;4996065;28;20448;-68
2022/07/30 07:04:48;;;;;;;18.43;14.00;;;20.30;91.70;;;;;;4996068;28;20543;-68
2022/07/30 07:07:14;;;;;;;16.87;14.53;;;20.40;91.40;;;;;;4996052;28;20462;-68
2022/07/30 07:09:41;;;;;;;16.40;14.10;;;20.40;91.40;;;;;;4997737;28;20468;-68
2022/07/30 07:12:08;;;;;;;15.03;13.40;;;20.50;91.20;;;;;;4998029;28;20499;-68
2022/07/30 07:14:35;;;;;;;17.23;13.70;;;20.50;90.90;;;;;;4996343;28;20449;-68
2022/07/30 07:17:01;;;;;;;17.93;13.17;;;20.60;90.70;;;;;;4995838;28;20819;-68
2022/07/30 07:19:30;;;;;;;14.03;12.03;;;20.60;90.00;;;;;;4995704;28;20817;-68
2022/07/30 07:21:57;;;;;;;19.17;13.90;;;20.70;90.10;;;;;;4995868;28;20440;-68
2022/07/30 07:24:24;;;;;;;15.17;12.10;;;20.70;90.00;;;;;;4995881;28;20454;-68
2022/07/30 07:26:50;;;;;;;17.10;12.30;;;20.80;89.90;;;;;;4995362;28;20459;-68
2022/07/30 07:29:17;;;;;;;16.83;12.70;;;20.80;89.60;;;;;;4995466;28;20468;-68
2022/07/30 07:31:44;;;;;;;14.17;12.67;;;20.80;89.70;;;;;;4995193;28;20482;-68
2022/07/30 07:34:11;;;;;;;16.87;12.97;;;20.90;89.90;;;;;;4994964;28;20531;-68
2022/07/30 07:36:39;;;;;;;13.07;11.60;;;21.10;88.60;;;;;;4995235;28;20906;-68
2022/07/30 07:39:08;;;;;;;14.33;12.83;;;21.30;88.00;;;;;;4995098;28;20464;-68
2022/07/30 07:41:35;;;;;;;13.43;12.00;;;21.40;86.90;;;;;;4995091;28;20467;-68
2022/07/30 07:44:02;;;;;;;18.07;12.37;;;21.50;86.70;;;;;;4995087;28;20448;-68
2022/07/30 07:46:29;;;;;;;13.80;12.50;;;21.60;85.30;;;;;;4994738;28;20942;-68
2022/07/30 07:48:56;;;;;;;15.43;13.30;;;21.60;85.50;;;;;;4994946;28;20476;-68
2022/07/30 07:51:23;;;;;;;18.03;12.43;;;21.70;86.10;;;;;;4994980;28;20484;-68
2022/07/30 07:53:51;;;;;;;14.20;12.40;;;21.80;85.10;;;;;;4995043;28;20440;-68
2022/07/30 07:56:17;;;;;;;14.70;13.27;;;22.00;83.90;;;;;;4994568;28;20460;-68
2022/07/30 07:58:46;;;;;;;16.53;12.37;;;22.10;82.40;;;;;;4994818;28;20797;-69
2022/07/30 08:01:12;;;;;;;18.20;14.47;;;22.10;82.50;;;;;;4994537;28;20454;-68
2022/07/30 08:03:39;;;;;;;20.73;15.30;;;22.20;83.80;;;;;;4994670;28;20825;-68
2022/07/30 08:06:06;;;;;;;17.43;13.30;;;22.30;83.00;;;;;;4994404;28;20909;-68
2022/07/30 08:08:35;;;;;;;17.43;12.60;;;22.20;80.70;;;;;;4994677;28;20450;-69
2022/07/30 08:11:04;;;;;;;21.87;14.40;;;22.20;80.80;;;;;;4994630;28;20456;-68
2022/07/30 08:13:31;;;;;;;14.47;12.93;;;22.30;80.50;;;;;;4994355;28;20906;-68
2022/07/30 08:15:58;;;;;;;18.10;13.57;;;22.50;81.00;;;;;;4994549;28;20468;-68
2022/07/30 08:18:25;;;;;;;14.47;12.63;;;22.70;79.10;;;;;;4994492;28;20828;-68
2022/07/30 08:20:52;;;;;;;14.97;12.83;;;22.80;77.90;;;;;;4994473;28;20460;-68
2022/07/30 08:23:21;;;;;;;20.53;14.30;;;23.00;77.50;;;;;;4994109;28;20452;-68
2022/07/30 08:25:47;;;;;;;14.90;12.80;;;23.00;77.10;;;;;;4994494;28;20535;-68
2022/07/30 08:28:16;;;;;;;16.60;12.90;;;23.00;75.90;;;;;;4994505;28;20448;-68
2022/07/30 08:30:42;;;;;;;16.23;13.20;;;22.90;76.80;;;;;;4994408;28;20477;-68
2022/07/30 08:33:09;;;;;;;19.17;13.70;;;22.80;75.40;;;;;;4994278;28;20484;-71
2022/07/30 08:35:36;;;;;;;16.23;14.17;;;22.90;77.10;;;;;;4994347;28;20444;-72
2022/07/30 08:38:03;;;;;;;16.60;13.60;;;23.00;76.10;;;;;;4994314;28;20451;-72
2022/07/30 08:40:33;;;;;;;19.43;12.90;;;23.10;76.90;;;;;;4994276;28;20471;-71
2022/07/30 08:43:02;;;;;;;18.00;13.37;;;23.40;76.00;;;;;;4994423;28;20487;-71
2022/07/30 08:45:31;;;;;;;16.07;12.03;;;23.60;72.80;;;;;;4994272;28;20455;-71
2022/07/30 08:47:59;;;;;;;18.70;11.97;;;23.60;71.80;;;;;;4993903;28;20455;-71
2022/07/30 08:50:26;;;;;;;20.83;14.53;;;23.60;73.20;;;;;;4994066;28;20468;-71
2022/07/30 08:52:54;;;;;;;16.73;14.70;;;23.60;72.10;;;;;;4994654;28;20575;-71
2022/07/30 08:55:22;;;;;;;15.80;12.60;;;23.80;72.40;;;;;;4994288;28;20456;-72
2022/07/30 08:57:49;;;;;;;12.80;10.40;;;24.00;70.00;;;;;;4994109;28;20470;-72
2022/07/30 09:00:16;;;;;;;10.50;7.67;;;24.20;69.30;;;;;;4993900;28;20468;-71
2022/07/30 09:02:45;;;;;;;12.80;8.47;;;24.50;68.00;;;;;;4993656;28;20965;-71
2022/07/30 09:05:12;;;;;;;10.73;8.13;;;24.70;67.90;;;;;;4993961;28;20523;-71
2022/07/30 09:07:40;;;;;;;11.17;9.90;;;25.00;65.90;;;;;;4994982;28;20448;-69
2022/07/30 09:10:08;;;;;;;13.57;8.53;;;25.30;62.50;;;;;;4997892;28;20476;-69
2022/07/30 09:12:37;;;;;;;7.93;6.80;;;25.40;59.90;;;;;;4997573;28;20491;-69
2022/07/30 09:15:07;;;;;;;9.10;7.30;;;25.30;59.00;;;;;;4997901;28;20789;-69
2022/07/30 09:17:54;;;;;;;13.13;6.83;;;25.30;59.10;;;;;;4997786;28;20459;-69
2022/07/30 09:20:22;;;;;;;10.30;6.80;;;25.30;58.70;;;;;;4997984;28;20476;-71
2022/07/30 09:22:51;;;;;;;9.27;7.30;;;25.40;58.40;;;;;;4997447;28;20821;-72
2022/07/30 09:25:33;;;;;;;13.90;9.23;;;25.70;58.80;;;;;;4997652;28;20447;-71
2022/07/30 09:28:00;;;;;;;11.40;9.10;;;26.10;58.10;;;;;;4997698;28;20436;-72
2022/07/30 09:30:42;;;;;;;9.50;8.60;;;26.50;56.70;;;;;;4997558;28;20840;-72
2022/07/30 09:33:10;;;;;;;10.20;8.20;;;26.40;53.80;;;;;;4997700;28;20479;-72
2022/07/30 09:35:37;;;;;;;9.70;8.80;;;26.40;54.70;;;;;;4997538;28;20461;-72
2022/07/30 09:38:06;;;;;;;7.77;6.00;;;26.60;53.90;;;;;;4997230;28;20942;-69
2022/07/30 09:40:32;;;;;;;11.23;6.83;;;26.50;53.60;;;;;;4997542;28;20471;-68
2022/07/30 09:43:04;;;;;;;6.63;5.67;;;26.40;53.50;;;;;;4998544;28;20432;-69
2022/07/30 09:45:31;;;;;;;8.93;5.50;;;26.40;53.60;;;;;;4997532;28;20439;-69
2022/07/30 09:47:58;;;;;;;7.37;3.93;;;26.40;53.10;;;;;;4997591;28;20460;-70
2022/07/30 09:50:26;;;;;;;9.63;6.93;;;26.80;52.90;;;;;;4996998;28;21016;-69
2022/07/30 09:52:54;;;;;;;9.63;5.20;;;27.10;51.30;;;;;;4997158;28;20530;-70
2022/07/30 09:55:32;;;;;;;6.27;4.47;;;27.20;49.50;;;;;;4996878;28;20974;-70
2022/07/30 09:58:01;;;;;;;5.50;4.03;;;27.40;50.30;;;;;;4997028;28;20444;-69
2022/07/30 10:00:29;;;;;;;7.00;4.07;;;27.40;47.50;;;;;;4996730;28;20472;-69
2022/07/30 10:02:56;;;;;;;11.77;6.63;;;27.40;47.30;;;;;;4996879;28;20452;-70
2022/07/30 10:05:24;;;;;;;5.80;5.30;;;27.50;48.20;;;;;;4996954;28;20519;-70
2022/07/30 10:07:54;;;;;;;6.73;6.13;;;27.60;48.70;;;;;;4996594;28;21041;-70
2022/07/30 10:10:22;;;;;;;10.13;6.73;;;27.90;47.30;;;;;;4996787;28;20494;-70
2022/07/30 10:12:52;;;;;;;6.43;5.00;;;28.00;46.80;;;;;;4996406;28;20492;-71
2022/07/30 10:15:20;;;;;;;6.10;5.00;;;28.30;46.90;;;;;;4996465;28;20945;-71
2022/07/30 10:17:49;;;;;;;7.27;4.20;;;28.40;42.20;;;;;;4996728;28;20820;-71
2022/07/30 10:20:16;;;;;;;4.97;3.37;;;28.70;42.80;;;;;;4995988;28;20472;-70
2022/07/30 10:22:43;;;;;;;5.23;4.73;;;29.30;41.90;;;;;;4996731;28;20433;-70
2022/07/30 10:25:11;;;;;;;5.47;5.07;;;29.80;42.10;;;;;;4996688;28;20446;-71
2022/07/30 10:27:39;;;;;;;4.00;3.37;;;30.30;40.40;;;;;;4996563;28;20470;-69
2022/07/30 10:30:07;;;;;;;7.07;4.33;;;30.70;39.80;;;;;;4996505;28;20495;-70
2022/07/30 10:32:34;;;;;;;4.07;3.63;;;31.30;37.60;;;;;;4996068;28;20486;-70
2022/07/30 10:35:01;;;;;;;5.67;4.70;;;31.70;36.70;;;;;;4996483;28;20455;-70
2022/07/30 10:37:30;;;;;;;4.77;4.23;;;32.10;35.20;;;;;;4996441;28;20448;-70
2022/07/30 10:40:02;;;;;;;6.00;4.20;;;32.50;35.10;;;;;;4996358;28;20468;-70
2022/07/30 10:42:49;;;;;;;5.23;4.13;;;33.10;34.10;;;;;;4996399;28;20523;-70
2022/07/30 10:45:21;;;;;;;7.50;4.83;;;33.30;31.70;;;;;;4996536;28;20454;-71
2022/07/30 10:47:49;;;;;;;5.03;4.50;;;33.70;31.60;;;;;;4995984;28;20965;-71
2022/07/30 10:50:17;;;;;;;7.07;4.90;;;34.20;30.30;;;;;;4996062;28;20475;-70
2022/07/30 10:52:53;;;;;;;9.73;5.03;;;34.20;29.10;;;;;;4996052;28;20487;-70
2022/07/30 10:55:22;;;;;;;6.00;4.27;;;34.10;28.70;;;;;;4996115;28;20439;-71
2022/07/30 10:58:06;;;;;;;5.13;4.67;;;34.40;28.60;;;;;;4996032;28;20550;-70
2022/07/30 11:00:34;;;;;;;5.50;4.40;;;34.50;28.40;;;;;;4995650;28;20478;-70
2022/07/30 11:03:16;;;;;;;5.40;4.90;;;35.10;28.30;;;;;;4995977;28;20452;-70
2022/07/30 11:05:44;;;;;;;12.73;5.20;;;35.30;26.70;;;;;;4996750;28;20436;-71
2022/07/30 11:08:31;;;;;;;5.30;4.00;;;35.10;27.30;;;;;;4995840;28;20450;-70
2022/07/30 11:10:59;;;;;;;5.80;3.33;;;35.40;27.90;;;;;;4995686;28;20460;-71
2022/07/30 11:13:51;;;;;;;4.30;3.90;;;35.60;26.20;;;;;;4995248;28;20491;-70
2022/07/30 11:16:19;;;;;;;9.03;4.00;;;35.90;25.00;;;;;;4995667;28;20432;-71
2022/07/30 11:19:16;;;;;;;4.43;3.17;;;36.30;26.20;;;;;;4995630;28;20484;-70
2022/07/30 11:21:46;;;;;;;6.10;3.87;;;36.80;25.40;;;;;;4951620;28;20966;-71
2022/07/30 11:24:41;;;;;;;4.83;4.10;;;37.20;24.60;;;;;;4995499;28;20487;-71
2022/07/30 11:27:08;;;;;;;4.03;2.77;;;37.30;24.20;;;;;;4995411;28;20211;-70
2022/07/30 11:29:41;;;;;;;3.70;2.57;;;37.30;24.20;;;;;;4995176;28;20482;-70
2022/07/30 11:32:28;;;;;;;5.27;3.53;;;37.70;24.20;;;;;;4994961;28;20195;-71
2022/07/30 11:35:17;;;;;;;6.60;3.13;;;38.30;22.70;;;;;;4995074;28;20674;-71
2022/07/30 11:38:05;;;;;;;3.35;2.35;;;38.60;24.00;;;;;;4995375;28;20193;-71
2022/07/30 11:40:34;;;;;;;6.63;3.03;;;38.80;22.90;;;;;;4995176;28;20225;-70
2022/07/30 11:43:19;;;;;;;5.10;3.30;;;39.00;22.80;;;;;;4994343;28;20445;-70
2022/07/30 11:45:49;;;;;;;5.40;2.33;;;38.90;22.50;;;;;;4995052;28;20443;-70
2022/07/30 11:48:18;;;;;;;5.55;2.65;;;38.80;23.10;;;;;;4995075;28;20210;-70
2022/07/30 11:50:45;;;;;;;6.30;2.50;;;38.90;23.50;;;;;;4995000;28;20282;-70
2022/07/30 11:53:16;;;;;;;3.22;2.30;;;39.10;22.90;;;;;;4994905;28;20247;-71
2022/07/30 11:55:44;;;;;;;3.38;2.20;;;39.30;23.80;;;;;;4994740;28;20195;-71
2022/07/30 11:58:22;;;;;;;3.15;2.25;;;39.40;22.80;;;;;;4994908;28;20216;-70
2022/07/30 12:00:51;;;;;;;3.53;2.58;;;39.60;23.20;;;;;;4994971;28;20641;-70
2022/07/30 12:03:19;;;;;;;2.53;2.25;;;39.70;22.20;;;;;;4994879;28;20205;-71
2022/07/30 12:05:46;;;;;;;5.35;2.17;;;39.60;22.40;;;;;;4994820;28;20208;-71
2022/07/30 12:08:15;;;;;;;3.85;2.00;;;39.70;22.40;;;;;;4994715;28;20575;-71
2022/07/30 12:10:42;;;;;;;3.17;1.90;;;39.90;21.80;;;;;;4994567;28;20229;-70
2022/07/30 12:13:13;;;;;;;4.40;2.15;;;40.30;22.00;;;;;;4994245;28;20234;-71
2022/07/30 12:15:41;;;;;;;6.43;2.58;;;40.40;21.80;;;;;;4994720;28;20229;-71
2022/07/30 12:18:12;;;;;;;2.92;2.17;;;40.10;21.40;;;;;;4994314;28;20216;-70
2022/07/30 12:20:39;;;;;;;2.78;2.25;;;40.00;22.60;;;;;;4994410;28;20225;-70
2022/07/30 12:23:10;;;;;;;3.83;2.78;;;39.80;22.30;;;;;;4994819;28;20272;-71
2022/07/30 12:25:39;;;;;;;2.90;1.50;;;39.60;23.20;;;;;;4994350;28;20634;-71
2022/07/30 12:28:05;;;;;;;3.15;1.60;;;39.70;22.70;;;;;;4994336;28;20737;-70
2022/07/30 12:30:32;;;;;;;2.83;1.58;;;39.70;22.40;;;;;;4994305;28;20229;-70
2022/07/30 12:32:59;;;;;;;1.63;1.52;;;39.70;22.20;;;;;;4994314;28;20232;-70
2022/07/30 12:35:43;;;;;;;2.95;1.75;;;39.70;21.60;;;;;;4994383;28;20211;-71
2022/07/30 12:38:10;;;;;;;3.50;1.63;;;40.00;22.30;;;;;;4994440;28;20271;-71
2022/07/30 12:40:51;;;;;;;8.02;1.92;;;40.30;21.50;;;;;;4994433;28;20230;-70
2022/07/30 12:43:18;;;;;;;2.58;1.80;;;40.80;21.90;;;;;;4993991;28;20630;-71
2022/07/30 12:45:45;;;;;;;3.67;1.63;;;41.10;21.80;;;;;;4994252;28;20200;-71
2022/07/30 12:48:12;;;;;;;2.03;1.67;;;41.70;21.00;;;;;;4994224;28;20231;-71